Time;durP1;ratioP1;P1;durP2;ratioP2;P2;SDS_P1;SDS_P2;PMS_P1;PMS_P2;Temp;Humidity;BMP_temperature;BMP_pressure;BME280_temperature;BME280_humidity;BME280_pressure;Samples;Min_cycle;Max_cycle;Signal;HPM_P1;HPM_P2
2024/03/06 00:03:45;;;;;;;9.40;6.30;;;;;5.90;101177.00;;;;10401231;28;20910;-77
2024/03/06 00:08:46;;;;;;;10.97;6.83;;;;;5.80;101181.00;;;;10376087;28;20227;-77
2024/03/06 00:13:48;;;;;;;9.80;6.87;;;;;5.80;101182.00;;;;10394897;28;20218;-74
2024/03/06 00:18:49;;;;;;;12.07;8.30;;;;;5.70;101186.00;;;;10397204;28;20761;-78
2024/03/06 00:23:50;;;;;;;10.17;7.77;;;;;5.70;101194.00;;;;10379953;28;20219;-78
2024/03/06 00:28:51;;;;;;;9.93;7.90;;;;;5.60;101196.00;;;;10362644;28;20684;-78
2024/03/06 00:33:52;;;;;;;11.33;7.73;;;;;5.60;101188.00;;;;10399834;28;20276;-77
2024/03/06 00:38:53;;;;;;;11.13;9.10;;;;;5.40;101199.00;;;;10388379;28;20221;-77
2024/03/06 00:43:55;;;;;;;12.57;9.50;;;;;5.30;101203.00;;;;10378950;28;20238;-76
2024/03/06 00:48:56;;;;;;;12.17;8.80;;;;;5.20;101202.00;;;;10413555;28;20614;-78
2024/03/06 00:53:57;;;;;;;11.13;9.10;;;;;5.10;101214.00;;;;10393382;28;20353;-78
2024/03/06 00:58:58;;;;;;;10.70;9.10;;;;;5.10;101213.00;;;;10400019;28;20297;-77
2024/03/06 01:03:59;;;;;;;15.10;9.37;;;;;5.00;101208.00;;;;10392171;28;20227;-77
2024/03/06 01:09:01;;;;;;;12.67;8.93;;;;;4.70;101209.00;;;;10390243;28;20301;-78
2024/03/06 01:14:03;;;;;;;15.00;10.20;;;;;4.60;101211.00;;;;10361569;28;20229;-79
2024/03/06 01:19:04;;;;;;;11.53;8.20;;;;;4.40;101218.00;;;;10373778;28;20218;-78
2024/03/06 01:24:05;;;;;;;11.03;8.47;;;;;4.40;101223.00;;;;10394506;28;20628;-78
2024/03/06 01:29:07;;;;;;;14.80;10.27;;;;;4.40;101221.00;;;;10377385;28;20222;-76
2024/03/06 01:34:08;;;;;;;14.97;9.87;;;;;4.40;101226.00;;;;10379750;28;20227;-78
2024/03/06 01:39:09;;;;;;;13.57;9.93;;;;;4.40;101228.00;;;;10406423;28;20276;-78
2024/03/06 01:44:11;;;;;;;11.13;9.00;;;;;4.40;101220.00;;;;10380538;28;20227;-77
2024/03/06 01:49:15;;;;;;;13.27;9.67;;;;;4.20;101234.00;;;;10385520;28;20218;-77
2024/03/06 01:54:26;;;;;;;12.57;9.50;;;;;4.20;101229.00;;;;10405103;28;20229;-77
2024/03/06 01:59:28;;;;;;;11.27;9.33;;;;;4.30;101226.00;;;;10374827;28;20226;-79
2024/03/06 02:04:38;;;;;;;10.60;8.90;;;;;4.30;101236.00;;;;10370404;28;20231;-79
2024/03/06 02:09:39;;;;;;;15.10;10.43;;;;;4.30;101246.00;;;;10396645;28;20222;-78
2024/03/06 02:14:40;;;;;;;14.23;10.20;;;;;4.30;101250.00;;;;10378546;28;20215;-78
2024/03/06 02:19:43;;;;;;;11.47;9.47;;;;;4.20;101243.00;;;;10409958;28;20233;-78
2024/03/06 02:24:48;;;;;;;11.80;9.43;;;;;4.00;101244.00;;;;10382678;28;20250;-78
2024/03/06 02:29:49;;;;;;;13.80;9.73;;;;;3.90;101241.00;;;;10378803;28;20219;-78
2024/03/06 02:34:50;;;;;;;10.57;9.00;;;;;3.80;101251.00;;;;10378452;28;20226;-77
2024/03/06 02:39:51;;;;;;;14.37;10.30;;;;;3.80;101251.00;;;;10378259;28;20254;-77
2024/03/06 02:44:53;;;;;;;13.23;9.80;;;;;3.70;101251.00;;;;10373875;28;20226;-78
2024/03/06 02:49:54;;;;;;;11.90;8.50;;;;;3.50;101250.00;;;;10363030;28;20317;-77
2024/03/06 02:54:56;;;;;;;12.43;9.23;;;;;3.40;101251.00;;;;10393029;28;20231;-77
2024/03/06 02:59:58;;;;;;;12.90;10.03;;;;;3.30;101247.00;;;;10387962;28;20219;-77
2024/03/06 03:04:59;;;;;;;15.27;9.80;;;;;3.30;101251.00;;;;10385747;28;20300;-77
2024/03/06 03:10:01;;;;;;;12.77;9.17;;;;;3.20;101253.00;;;;10358793;28;20246;-77
2024/03/06 03:15:02;;;;;;;12.83;9.70;;;;;3.10;101250.00;;;;10385637;28;20218;-77
2024/03/06 03:20:09;;;;;;;12.10;10.70;;;;;3.10;101251.00;;;;10385958;28;20297;-78
2024/03/06 03:25:13;;;;;;;13.67;9.60;;;;;3.00;101246.00;;;;10379870;28;20222;-78
2024/03/06 03:30:15;;;;;;;14.33;10.53;;;;;2.90;101253.00;;;;10398495;28;20210;-77
2024/03/06 03:35:16;;;;;;;13.27;10.10;;;;;2.80;101257.00;;;;10383020;28;22529;-77
2024/03/06 03:40:18;;;;;;;12.67;9.80;;;;;2.70;101257.00;;;;10359690;28;20248;-77
2024/03/06 03:45:20;;;;;;;14.50;10.63;;;;;2.60;101253.00;;;;10368340;28;20251;-78
2024/03/06 03:50:21;;;;;;;17.67;12.80;;;;;2.60;101264.00;;;;10377368;28;20250;-78
2024/03/06 03:55:22;;;;;;;13.70;10.77;;;;;2.60;101276.00;;;;10393275;28;20277;-77
2024/03/06 04:00:23;;;;;;;15.97;11.27;;;;;2.50;101275.00;;;;10359464;28;20227;-77
2024/03/06 04:05:25;;;;;;;15.80;11.57;;;;;2.50;101275.00;;;;10398531;28;20226;-78
2024/03/06 04:10:26;;;;;;;15.90;10.27;;;;;2.40;101278.00;;;;10340973;28;21037;-77
2024/03/06 04:15:28;;;;;;;14.60;11.50;;;;;2.40;101277.00;;;;10377497;28;20223;-77
2024/03/06 04:20:29;;;;;;;18.80;11.90;;;;;2.30;101288.00;;;;10378756;28;20302;-77
2024/03/06 04:25:30;;;;;;;17.53;13.93;;;;;2.30;101289.00;;;;10377540;28;20226;-77
2024/03/06 04:30:31;;;;;;;16.43;12.60;;;;;2.30;101296.00;;;;10401373;28;20305;-76
2024/03/06 04:35:32;;;;;;;13.03;10.67;;;;;2.20;101301.00;;;;10357324;28;20302;-77
2024/03/06 04:40:36;;;;;;;14.80;10.47;;;;;2.10;101317.00;;;;10343881;28;20233;-82
2024/03/06 04:45:37;;;;;;;19.07;11.37;;;;;1.90;101317.00;;;;10389450;28;20230;-82
2024/03/06 04:50:38;;;;;;;17.73;11.93;;;;;1.90;101318.00;;;;10376085;28;20214;-82
2024/03/06 04:55:40;;;;;;;16.87;12.67;;;;;1.90;101325.00;;;;10364932;28;20695;-82
2024/03/06 05:00:41;;;;;;;25.17;15.17;;;;;2.00;101330.00;;;;10399170;28;20226;-82
2024/03/06 05:05:42;;;;;;;20.77;15.07;;;;;2.00;101330.00;;;;10396789;28;20254;-82
2024/03/06 05:11:02;;;;;;;24.33;16.63;;;;;2.10;101337.00;;;;10354479;28;20268;-82
2024/03/06 05:16:23;;;;;;;22.33;16.10;;;;;2.10;101340.00;;;;10352315;28;20226;-82
2024/03/06 05:21:43;;;;;;;25.90;16.97;;;;;2.10;101340.00;;;;10379637;28;20217;-82
2024/03/06 05:27:03;;;;;;;21.20;14.50;;;;;2.10;101351.00;;;;10380985;28;20227;-82
2024/03/06 05:32:23;;;;;;;21.63;16.70;;;;;2.00;101365.00;;;;10393673;28;20222;-82
2024/03/06 05:37:43;;;;;;;21.03;14.77;;;;;1.90;101373.00;;;;10375445;28;20810;-80
2024/03/06 05:43:03;;;;;;;21.63;14.83;;;;;1.80;101370.00;;;;10379821;28;20224;-82
2024/03/06 05:48:24;;;;;;;18.90;14.50;;;;;1.70;101379.00;;;;10378544;28;20322;-77
2024/03/06 05:53:43;;;;;;;19.97;14.07;;;;;1.70;101383.00;;;;10376519;28;20249;-77
2024/03/06 05:59:04;;;;;;;20.13;14.43;;;;;1.60;101393.00;;;;10358020;28;20690;-78
2024/03/06 06:04:05;;;;;;;21.77;15.07;;;;;1.60;101403.00;;;;10359000;28;20354;-76
2024/03/06 06:09:15;;;;;;;26.23;15.97;;;;;1.70;101410.00;;;;10360007;28;20309;-77
2024/03/06 06:14:16;;;;;;;26.60;16.37;;;;;1.70;101414.00;;;;10357354;28;20221;-77
2024/03/06 06:19:17;;;;;;;23.23;17.17;;;;;1.80;101414.00;;;;10387500;28;20276;-78
2024/03/06 06:24:19;;;;;;;23.97;16.40;;;;;1.90;101419.00;;;;10359246;28;20222;-77
2024/03/06 06:29:20;;;;;;;24.27;17.17;;;;;1.90;101424.00;;;;10351798;28;20635;-77
2024/03/06 06:34:21;;;;;;;21.93;16.50;;;;;2.00;101437.00;;;;10365454;28;20245;-77
2024/03/06 06:39:22;;;;;;;22.53;16.40;;;;;2.00;101438.00;;;;10345203;28;20227;-79
2024/03/06 06:44:23;;;;;;;23.10;18.27;;;;;2.20;101451.00;;;;10373217;28;20719;-78
2024/03/06 06:49:24;;;;;;;27.03;19.17;;;;;2.50;101454.00;;;;10344046;28;20218;-76
2024/03/06 06:54:25;;;;;;;24.80;18.03;;;;;2.90;101467.00;;;;10388108;28;20570;-77
2024/03/06 06:59:27;;;;;;;26.87;17.77;;;;;3.20;101474.00;;;;10363724;28;20222;-78
2024/03/06 07:04:29;;;;;;;29.93;19.83;;;;;3.40;101473.00;;;;10354758;28;20229;-78
2024/03/06 07:09:30;;;;;;;25.30;18.23;;;;;3.70;101478.00;;;;10382229;28;20242;-78
2024/03/06 07:14:31;;;;;;;25.23;18.17;;;;;4.00;101490.00;;;;10377475;28;20222;-79
2024/03/06 07:19:32;;;;;;;22.50;16.53;;;;;4.10;101498.00;;;;10388067;28;20221;-78
2024/03/06 07:24:34;;;;;;;26.33;16.70;;;;;4.60;101488.00;;;;10353034;28;20311;-78
2024/03/06 07:29:39;;;;;;;17.43;13.90;;;;;5.20;101495.00;;;;10372655;28;20301;-79
2024/03/06 07:34:41;;;;;;;15.63;11.67;;;;;5.70;101506.00;;;;10415043;28;20222;-79
2024/03/06 07:39:42;;;;;;;18.23;11.43;;;;;6.00;101511.00;;;;10400629;28;20318;-78
2024/03/06 07:44:43;;;;;;;16.53;11.23;;;;;6.30;101523.00;;;;10415716;28;20218;-78
2024/03/06 07:49:44;;;;;;;17.03;10.57;;;;;6.60;101521.00;;;;10364106;28;20769;-78
2024/03/06 07:54:45;;;;;;;13.30;10.87;;;;;6.80;101525.00;;;;10399979;28;20278;-76
2024/03/06 07:59:48;;;;;;;15.73;10.20;;;;;7.00;101530.00;;;;10427601;28;20360;-76
2024/03/06 08:04:50;;;;;;;16.43;11.73;;;;;7.30;101533.00;;;;10371121;28;20225;-75
2024/03/06 08:09:51;;;;;;;16.80;11.03;;;;;7.60;101537.00;;;;10400905;28;20280;-76
2024/03/06 08:14:54;;;;;;;15.67;10.73;;;;;8.10;101530.00;;;;10399832;28;20222;-76
2024/03/06 08:19:55;;;;;;;16.97;9.60;;;;;8.50;101540.00;;;;10384191;28;20210;-76
2024/03/06 08:24:56;;;;;;;13.70;8.93;;;;;8.80;101545.00;;;;10345329;28;20230;-79
2024/03/06 08:29:57;;;;;;;12.47;8.73;;;;;9.20;101562.00;;;;10361345;28;20245;-75
2024/03/06 08:34:59;;;;;;;10.27;8.10;;;;;9.50;101558.00;;;;10391968;28;20219;-75
2024/03/06 08:40:00;;;;;;;9.47;7.13;;;;;9.80;101559.00;;;;10350910;28;20296;-76
2024/03/06 08:45:02;;;;;;;8.60;6.67;;;;;10.10;101576.00;;;;10362137;28;20219;-76
2024/03/06 08:50:03;;;;;;;9.90;7.63;;;;;10.30;101571.00;;;;10381448;28;20254;-76
2024/03/06 08:55:06;;;;;;;8.77;6.13;;;;;10.60;101570.00;;;;10358872;28;20938;-76
2024/03/06 09:00:10;;;;;;;9.50;6.83;;;;;10.90;101571.00;;;;10350392;28;20211;-77
2024/03/06 09:05:12;;;;;;;7.60;6.07;;;;;11.40;101580.00;;;;10397485;28;20894;-77
2024/03/06 09:10:14;;;;;;;9.10;5.60;;;;;11.60;101584.00;;;;10394584;28;20322;-76
2024/03/06 09:15:16;;;;;;;9.93;6.45;;;;;11.80;101588.00;;;;10381533;28;20221;-76
2024/03/06 09:20:17;;;;;;;9.40;6.60;;;;;12.10;101590.00;;;;10377007;28;20310;-73
2024/03/06 09:25:18;;;;;;;11.95;8.38;;;;;12.30;101588.00;;;;10382582;28;20223;-76
2024/03/06 09:30:19;;;;;;;12.65;8.02;;;;;12.60;101597.00;;;;10373611;28;20227;-74
2024/03/06 09:35:21;;;;;;;13.48;8.13;;;;;13.10;101584.00;;;;10413232;28;20219;-75
2024/03/06 09:40:23;;;;;;;11.43;8.00;;;;;13.40;101593.00;;;;10385453;28;20291;-74
2024/03/06 09:45:24;;;;;;;9.73;6.97;;;;;13.60;101598.00;;;;10370675;28;20227;-74
2024/03/06 09:50:26;;;;;;;12.80;7.18;;;;;13.70;101594.00;;;;10388008;28;20283;-77
2024/03/06 09:55:28;;;;;;;12.80;8.07;;;;;14.10;101602.00;;;;10359087;28;20245;-75
2024/03/06 10:00:32;;;;;;;12.68;7.65;;;;;14.50;101609.00;;;;10395256;28;20218;-74
2024/03/06 10:05:34;;;;;;;12.57;7.78;;;;;14.90;101620.00;;;;10362919;28;20229;-75
2024/03/06 10:10:36;;;;;;;12.10;8.00;;;;;15.10;101621.00;;;;10374162;28;20224;-74
2024/03/06 10:15:39;;;;;;;12.18;7.72;;;;;15.00;101628.00;;;;10374332;28;20677;-74
2024/03/06 10:20:43;;;;;;;12.38;7.88;;;;;15.20;101620.00;;;;10342286;28;20302;-77
2024/03/06 10:25:45;;;;;;;13.85;8.23;;;;;15.70;101621.00;;;;10338243;28;20222;-74
2024/03/06 10:30:46;;;;;;;10.88;8.40;;;;;16.20;101633.00;;;;10352986;28;20222;-77
2024/03/06 10:35:48;;;;;;;13.80;7.68;;;;;16.80;101637.00;;;;10367448;28;20225;-77
2024/03/06 10:40:51;;;;;;;10.07;6.75;;;;;17.30;101639.00;;;;10380582;28;20246;-78
2024/03/06 10:46:05;;;;;;;8.73;5.53;;;;;17.20;101640.00;;;;10372375;28;20995;-77
2024/03/06 10:51:07;;;;;;;6.03;4.78;;;;;16.90;101638.00;;;;10382166;28;20215;-77
2024/03/06 10:56:09;;;;;;;8.35;6.15;;;;;17.90;101647.00;;;;10355066;28;20226;-78
2024/03/06 11:01:12;;;;;;;9.48;6.05;;;;;18.80;101656.00;;;;10370184;28;20656;-78
2024/03/06 11:06:14;;;;;;;8.48;5.78;;;;;18.50;101663.00;;;;10366000;28;20612;-78
2024/03/06 11:11:22;;;;;;;6.82;5.70;;;;;18.90;101658.00;;;;10358042;28;20663;-78
2024/03/06 11:16:33;;;;;;;11.10;5.88;;;;;18.80;101661.00;;;;10380292;28;20238;-78
2024/03/06 11:21:34;;;;;;;10.35;6.10;;;;;16.30;101682.00;;;;10359972;28;20851;-78
2024/03/06 11:26:36;;;;;;;8.60;6.25;;;;;15.00;101685.00;;;;10338065;28;20249;-78
2024/03/06 11:31:37;;;;;;;9.70;6.22;;;;;16.00;101677.00;;;;10335376;28;20217;-78
2024/03/06 11:36:40;;;;;;;8.35;5.57;;;;;16.20;101685.00;;;;10337562;28;20247;-79
2024/03/06 11:41:48;;;;;;;7.18;5.65;;;;;17.00;101692.00;;;;10359757;28;20324;-77
2024/03/06 11:46:58;;;;;;;7.90;5.25;;;;;16.70;101699.00;;;;10363374;28;20218;-77
2024/03/06 11:52:05;;;;;;;5.57;4.93;;;;;15.60;101688.00;;;;10359593;28;20243;-77
2024/03/06 11:57:06;;;;;;;7.85;5.55;;;;;16.60;101701.00;;;;10371415;28;20305;-78
2024/03/06 12:02:10;;;;;;;9.43;5.63;;;;;16.00;101697.00;;;;10359582;28;20554;-78
2024/03/06 12:07:11;;;;;;;9.13;6.00;;;;;16.10;101698.00;;;;10382992;28;20218;-78
2024/03/06 12:12:12;;;;;;;9.23;5.80;;;;;16.30;101698.00;;;;10377460;28;20310;-78
2024/03/06 12:17:14;;;;;;;13.05;5.50;;;;;15.90;101700.00;;;;10397875;28;20222;-77
2024/03/06 12:22:18;;;;;;;9.43;5.07;;;;;15.40;101699.00;;;;10406404;28;20269;-78
2024/03/06 12:27:22;;;;;;;7.30;4.82;;;;;15.10;101700.00;;;;10393915;28;20623;-78
2024/03/06 12:32:29;;;;;;;6.90;4.45;;;;;15.10;101698.00;;;;10394732;28;20271;-77
2024/03/06 12:37:31;;;;;;;5.40;4.45;;;;;15.00;101701.00;;;;10392161;28;20265;-78
2024/03/06 12:42:37;;;;;;;7.13;4.28;;;;;14.90;101697.00;;;;10395076;28;20215;-78
2024/03/06 12:47:40;;;;;;;6.53;4.00;;;;;14.90;101692.00;;;;10390234;28;20750;-78
2024/03/06 12:52:41;;;;;;;6.45;4.60;;;;;14.70;101691.00;;;;10362566;28;20222;-77
2024/03/06 12:57:43;;;;;;;5.22;3.75;;;;;14.40;101696.00;;;;10374924;28;20250;-77
2024/03/06 13:02:46;;;;;;;4.40;3.47;;;;;14.10;101682.00;;;;10379486;28;20678;-77
2024/03/06 13:07:47;;;;;;;5.68;3.40;;;;;14.90;101683.00;;;;10392545;28;20219;-78
2024/03/06 13:12:48;;;;;;;9.38;3.58;;;;;15.30;101690.00;;;;10379147;28;21027;-78
2024/03/06 13:17:49;;;;;;;6.65;3.50;;;;;14.70;101682.00;;;;10353294;28;20664;-77
2024/03/06 13:22:51;;;;;;;6.90;3.38;;;;;15.60;101687.00;;;;10375062;28;20229;-79
2024/03/06 13:27:56;;;;;;;5.00;3.13;;;;;15.90;101688.00;;;;10364730;28;20760;-78
2024/03/06 13:32:58;;;;;;;3.70;2.47;;;;;15.90;101689.00;;;;10380330;28;20250;-78
2024/03/06 13:37:59;;;;;;;6.03;3.58;;;;;15.80;101696.00;;;;10366272;28;20220;-77
2024/03/06 13:43:01;;;;;;;6.18;2.72;;;;;15.60;101687.00;;;;10378976;28;20809;-78
2024/03/06 13:48:05;;;;;;;4.13;2.60;;;;;15.50;101697.00;;;;10380357;28;20329;-78
2024/03/06 13:53:06;;;;;;;3.78;2.47;;;;;15.40;101691.00;;;;10390757;28;20321;-77
2024/03/06 13:58:07;;;;;;;3.10;2.80;;;;;15.30;101702.00;;;;10361416;28;20272;-78
2024/03/06 14:03:11;;;;;;;3.88;2.80;;;;;15.40;101700.00;;;;10372447;28;20795;-78
2024/03/06 14:08:12;;;;;;;5.50;3.30;;;;;15.50;101695.00;;;;10391344;28;20254;-78
2024/03/06 14:13:14;;;;;;;4.07;2.72;;;;;19.30;101631.00;;;;10364808;28;20280;-78
2024/03/06 14:18:16;;;;;;;6.07;2.97;;;;;20.60;101625.00;;;;10355296;28;20661;-79
2024/03/06 14:23:24;;;;;;;2.85;2.17;;;;;19.30;101694.00;;;;10355342;28;20226;-78
2024/03/06 14:28:25;;;;;;;3.75;2.38;;;;;19.00;101639.00;;;;10381601;28;20229;-79
2024/03/06 14:33:27;;;;;;;4.95;2.30;;;;;19.60;101630.00;;;;10378490;28;20880;-79
2024/03/06 14:38:28;;;;;;;6.13;2.65;;;;;19.40;101664.00;;;;10380393;28;20313;-78
2024/03/06 14:43:30;;;;;;;5.95;2.45;;;;;17.70;101714.00;;;;10364118;28;20272;-78
2024/03/06 14:48:34;;;;;;;3.25;2.65;;;;;19.00;101717.00;;;;10378864;28;20277;-78
2024/03/06 14:53:35;;;;;;;4.75;2.28;;;;;17.80;101691.00;;;;10374324;28;20310;-77
2024/03/06 14:58:37;;;;;;;2.47;1.98;;;;;16.40;101692.00;;;;10357435;28;20942;-77
2024/03/06 15:03:39;;;;;;;3.67;1.67;;;;;15.20;101715.00;;;;10360254;28;20318;-78
2024/03/06 15:08:40;;;;;;;3.03;1.65;;;;;16.50;101680.00;;;;10380000;28;20323;-76
2024/03/06 15:13:42;;;;;;;3.03;2.00;;;;;15.50;101714.00;;;;10373111;28;20223;-76
2024/03/06 15:18:43;;;;;;;7.25;2.30;;;;;14.40;101714.00;;;;10378495;28;20302;-76
2024/03/06 15:23:45;;;;;;;4.15;1.92;;;;;13.80;101707.00;;;;10398258;28;20309;-80
2024/03/06 15:28:46;;;;;;;4.20;2.05;;;;;14.90;101693.00;;;;10380138;28;20352;-77
2024/03/06 15:33:48;;;;;;;5.85;2.13;;;;;14.10;101726.00;;;;10352803;28;20230;-76
2024/03/06 15:38:49;;;;;;;3.97;2.10;;;;;13.20;101721.00;;;;10356770;28;20237;-77
2024/03/06 15:43:51;;;;;;;3.13;2.10;;;;;13.00;101721.00;;;;10367518;28;20210;-77
2024/03/06 15:48:52;;;;;;;4.35;1.75;;;;;13.40;101725.00;;;;10393519;28;20258;-75
2024/03/06 15:53:53;;;;;;;3.50;1.75;;;;;12.80;101723.00;;;;10363578;28;20246;-75
2024/03/06 15:58:54;;;;;;;2.73;2.00;;;;;12.50;101730.00;;;;10368481;28;20321;-77
2024/03/06 16:03:56;;;;;;;2.77;1.70;;;;;12.50;101735.00;;;;10398135;28;21867;-76
2024/03/06 16:08:59;;;;;;;5.40;1.87;;;;;12.40;101726.00;;;;10371784;28;20231;-76
2024/03/06 16:14:01;;;;;;;5.55;1.77;;;;;12.40;101735.00;;;;10361575;28;20310;-76
2024/03/06 16:19:02;;;;;;;4.87;1.43;;;;;12.00;101731.00;;;;10391802;28;20317;-79
2024/03/06 16:24:04;;;;;;;5.87;2.00;;;;;11.90;101737.00;;;;10358491;28;20254;-78
2024/03/06 16:29:12;;;;;;;2.33;1.17;;;;;11.70;101727.00;;;;10365767;28;20219;-79
2024/03/06 16:34:16;;;;;;;5.93;1.60;;;;;11.60;101743.00;;;;10392844;28;20219;-79
2024/03/06 16:39:17;;;;;;;2.60;1.43;;;;;11.40;101741.00;;;;10397177;28;20255;-79
2024/03/06 16:44:18;;;;;;;1.60;1.50;;;;;11.20;101752.00;;;;10374131;28;20226;-78
2024/03/06 16:49:21;;;;;;;4.17;2.43;;;;;11.10;101750.00;;;;10338428;28;20701;-79
2024/03/06 16:54:22;;;;;;;3.67;1.43;;;;;10.90;101755.00;;;;10328848;28;20231;-79
2024/03/06 16:59:23;;;;;;;3.60;1.47;;;;;10.80;101751.00;;;;10354909;28;20719;-78
2024/03/06 17:04:24;;;;;;;2.20;1.73;;;;;10.50;101759.00;;;;10375010;28;20309;-78
2024/03/06 17:09:25;;;;;;;8.87;3.53;;;;;10.40;101767.00;;;;10340070;28;20226;-78
2024/03/06 17:14:26;;;;;;;6.37;2.80;;;;;10.10;101771.00;;;;10339269;28;20314;-78
2024/03/06 17:19:29;;;;;;;6.70;2.63;;;;;9.90;101769.00;;;;10347355;28;20227;-78
2024/03/06 17:24:31;;;;;;;5.97;2.50;;;;;9.60;101780.00;;;;10351134;28;20317;-79
2024/03/06 17:29:32;;;;;;;3.63;2.40;;;;;9.40;101783.00;;;;10353982;28;20257;-79
2024/03/06 17:34:33;;;;;;;7.30;3.10;;;;;9.20;101778.00;;;;10344761;28;20230;-78
2024/03/06 17:39:35;;;;;;;14.13;4.53;;;;;9.00;101778.00;;;;10371959;28;20230;-79
2024/03/06 17:44:36;;;;;;;5.83;2.80;;;;;8.80;101793.00;;;;10336786;28;20222;-79
2024/03/06 17:49:38;;;;;;;5.70;2.77;;;;;8.60;101798.00;;;;10337031;28;21061;-79
2024/03/06 17:54:39;;;;;;;13.07;4.87;;;;;8.50;101802.00;;;;10357937;28;20785;-79
2024/03/06 17:59:40;;;;;;;8.80;4.07;;;;;8.30;101804.00;;;;10375504;28;20257;-79
2024/03/06 18:04:44;;;;;;;4.20;3.53;;;;;8.00;101810.00;;;;10343577;28;20229;-78
2024/03/06 18:09:45;;;;;;;7.17;3.70;;;;;7.90;101802.00;;;;10384978;28;20223;-79
2024/03/06 18:14:46;;;;;;;7.10;4.87;;;;;7.70;101810.00;;;;10358336;28;20259;-79
2024/03/06 18:19:48;;;;;;;8.50;4.80;;;;;7.60;101822.00;;;;10367127;28;20222;-79
2024/03/06 18:24:49;;;;;;;8.63;4.87;;;;;7.40;101820.00;;;;10356672;28;20323;-79
2024/03/06 18:29:50;;;;;;;9.93;6.27;;;;;7.30;101820.00;;;;10335450;28;20277;-79
2024/03/06 18:34:55;;;;;;;10.83;6.70;;;;;7.10;101813.00;;;;10345037;28;20224;-78
2024/03/06 18:39:56;;;;;;;11.87;5.53;;;;;7.00;101822.00;;;;10337090;28;20252;-82
2024/03/06 18:44:58;;;;;;;12.07;6.23;;;;;6.80;101830.00;;;;10383755;28;20314;-82
2024/03/06 18:49:59;;;;;;;12.03;7.77;;;;;6.70;101837.00;;;;10371131;28;20275;-81
2024/03/06 18:55:00;;;;;;;19.30;10.70;;;;;6.70;101837.00;;;;10350590;28;20228;-82
2024/03/06 19:00:02;;;;;;;19.23;11.37;;;;;6.60;101840.00;;;;10371714;28;20321;-82
2024/03/06 19:05:05;;;;;;;17.67;10.93;;;;;6.50;101843.00;;;;10380436;28;20226;-82
2024/03/06 19:10:07;;;;;;;17.83;9.73;;;;;6.50;101856.00;;;;10366609;28;20229;-82
2024/03/06 19:15:08;;;;;;;16.63;9.93;;;;;6.50;101856.00;;;;10376640;28;20262;-82
2024/03/06 19:20:13;;;;;;;16.10;10.77;;;;;6.50;101864.00;;;;10319381;28;20693;-85
2024/03/06 19:25:15;;;;;;;20.60;12.47;;;;;6.50;101863.00;;;;10375369;28;20272;-84
2024/03/06 19:30:19;;;;;;;23.37;12.63;;;;;6.40;101858.00;;;;10367460;28;20963;-86
2024/03/06 19:35:21;;;;;;;21.87;14.67;;;;;6.40;101856.00;;;;10361464;28;20315;-84
2024/03/06 19:40:23;;;;;;;28.87;18.63;;;;;6.30;101872.00;;;;10352425;28;20882;-85
2024/03/06 19:45:24;;;;;;;21.67;14.17;;;;;6.30;101861.00;;;;10406304;28;20820;-84
2024/03/06 19:50:25;;;;;;;22.27;13.47;;;;;6.30;101873.00;;;;10398196;28;20226;-77
2024/03/06 19:55:28;;;;;;;18.10;9.30;;;;;6.30;101869.00;;;;10383102;28;20227;-78
2024/03/06 20:00:30;;;;;;;9.27;6.73;;;;;6.40;101869.00;;;;10361277;28;20309;-78
2024/03/06 20:05:32;;;;;;;9.87;5.70;;;;;6.40;101875.00;;;;10365881;28;20257;-79
2024/03/06 20:10:33;;;;;;;9.80;4.80;;;;;6.40;101878.00;;;;10383168;28;20612;-78
2024/03/06 20:15:35;;;;;;;7.37;4.50;;;;;6.40;101874.00;;;;10374789;28;20234;-77
2024/03/06 20:20:36;;;;;;;7.40;4.63;;;;;6.30;101882.00;;;;10375794;28;20222;-78
2024/03/06 20:25:40;;;;;;;9.03;5.23;;;;;6.30;101873.00;;;;10382073;28;20787;-77
2024/03/06 20:30:42;;;;;;;10.03;7.10;;;;;6.20;101873.00;;;;10347576;28;20313;-78
2024/03/06 20:35:43;;;;;;;13.53;7.77;;;;;6.00;101870.00;;;;10384448;28;20230;-76
2024/03/06 20:40:45;;;;;;;10.97;7.53;;;;;5.80;101872.00;;;;10364489;28;20301;-76
2024/03/06 20:45:47;;;;;;;11.13;6.40;;;;;5.70;101884.00;;;;10355331;28;20747;-77
2024/03/06 20:50:49;;;;;;;10.97;6.60;;;;;5.60;101873.00;;;;10360561;28;20348;-78
2024/03/06 20:55:50;;;;;;;10.47;6.77;;;;;5.40;101878.00;;;;10343698;28;20235;-76
2024/03/06 21:00:51;;;;;;;11.90;8.20;;;;;5.30;101881.00;;;;10347362;28;20242;-76
2024/03/06 21:05:52;;;;;;;14.73;8.80;;;;;5.20;101880.00;;;;10366010;28;20230;-78
2024/03/06 21:10:54;;;;;;;11.17;8.43;;;;;5.10;101893.00;;;;10355014;28;20229;-77
2024/03/06 21:15:55;;;;;;;12.47;9.43;;;;;5.00;101889.00;;;;10343868;28;20331;-76
2024/03/06 21:20:57;;;;;;;17.77;11.27;;;;;4.90;101883.00;;;;10350181;28;20223;-76
2024/03/06 21:25:58;;;;;;;16.50;9.77;;;;;4.70;101892.00;;;;10394584;28;20219;-77
2024/03/06 21:30:59;;;;;;;12.27;9.60;;;;;4.60;101898.00;;;;10376477;28;20628;-76
2024/03/06 21:36:00;;;;;;;19.63;10.63;;;;;4.50;101899.00;;;;10365317;28;20340;-75
2024/03/06 21:41:02;;;;;;;25.33;11.73;;;;;4.50;101903.00;;;;10361805;28;20222;-76
2024/03/06 21:46:03;;;;;;;16.80;11.13;;;;;4.40;101909.00;;;;10359846;28;20245;-75
2024/03/06 21:51:05;;;;;;;18.77;11.57;;;;;4.30;101908.00;;;;10364109;28;20300;-75
2024/03/06 21:56:12;;;;;;;16.43;11.47;;;;;4.20;101904.00;;;;10377440;28;20228;-78
2024/03/06 22:01:13;;;;;;;14.23;11.40;;;;;4.10;101906.00;;;;10392376;28;20853;-76
2024/03/06 22:06:15;;;;;;;15.17;12.10;;;;;4.10;101911.00;;;;10389988;28;20246;-77
2024/03/06 22:11:16;;;;;;;17.23;12.20;;;;;4.00;101911.00;;;;10363262;28;20226;-80
2024/03/06 22:16:17;;;;;;;24.93;13.63;;;;;3.90;101910.00;;;;10373991;28;20230;-80
2024/03/06 22:21:18;;;;;;;18.77;12.90;;;;;3.80;101916.00;;;;10380101;28;20297;-80
2024/03/06 22:26:19;;;;;;;21.33;12.93;;;;;3.80;101913.00;;;;10351361;28;20230;-80
2024/03/06 22:31:24;;;;;;;19.00;13.17;;;;;3.90;101930.00;;;;10355478;28;20272;-79
2024/03/06 22:36:26;;;;;;;17.33;10.90;;;;;3.90;101927.00;;;;10372488;28;21047;-79
2024/03/06 22:41:27;;;;;;;19.10;13.10;;;;;3.80;101925.00;;;;10358625;28;20309;-79
2024/03/06 22:46:28;;;;;;;26.40;17.17;;;;;3.80;101921.00;;;;10388657;28;20221;-79
2024/03/06 22:51:35;;;;;;;24.80;16.87;;;;;3.80;101923.00;;;;10367278;28;20284;-80
2024/03/06 22:56:37;;;;;;;24.87;14.63;;;;;3.70;101926.00;;;;10356730;28;20226;-80
2024/03/06 23:01:39;;;;;;;27.77;16.83;;;;;3.70;101932.00;;;;10369807;28;20239;-80
2024/03/06 23:06:42;;;;;;;23.70;16.80;;;;;3.60;101925.00;;;;10350519;28;20309;-80
2024/03/06 23:11:43;;;;;;;23.00;15.57;;;;;3.50;101910.00;;;;10323882;28;20219;-79
2024/03/06 23:16:45;;;;;;;19.47;14.07;;;;;3.50;101911.00;;;;10338445;28;20273;-75
2024/03/06 23:21:46;;;;;;;23.47;15.03;;;;;3.40;101912.00;;;;10353421;28;20360;-81
2024/03/06 23:26:47;;;;;;;22.10;15.77;;;;;3.40;101915.00;;;;10387561;28;20244;-82
2024/03/06 23:31:48;;;;;;;30.67;16.60;;;;;3.40;101921.00;;;;10399357;28;20811;-81
2024/03/06 23:36:49;;;;;;;23.93;17.00;;;;;3.30;101920.00;;;;10346304;28;20249;-83
2024/03/06 23:41:50;;;;;;;24.67;16.17;;;;;3.30;101931.00;;;;10357380;28;20672;-82
2024/03/06 23:46:51;;;;;;;32.70;19.03;;;;;3.30;101934.00;;;;10373485;28;20771;-82
2024/03/06 23:51:54;;;;;;;28.87;18.73;;;;;3.20;101929.00;;;;10377556;28;20211;-78
2024/03/06 23:56:56;;;;;;;23.77;16.67;;;;;3.20;101935.00;;;;10444194;28;20221;-79
